sensor_id;sensor_type;location;lat;lon;timestamp;temperature;humidity
74940;HTU21D;63505;45.226;37.908;2023-11-19T00:00:57;8.16;82.78
74940;HTU21D;63505;45.226;37.908;2023-11-19T00:03:22;8.18;82.78
74940;HTU21D;63505;45.226;37.908;2023-11-19T00:05:48;8.18;82.76
74940;HTU21D;63505;45.226;37.908;2023-11-19T00:08:15;8.19;82.78
74940;HTU21D;63505;45.226;37.908;2023-11-19T00:10:40;8.19;82.76
74940;HTU21D;63505;45.226;37.908;2023-11-19T00:13:06;8.19;82.76
74940;HTU21D;63505;45.226;37.908;2023-11-19T00:15:32;8.21;82.74
74940;HTU21D;63505;45.226;37.908;2023-11-19T00:17:58;8.21;82.75
74940;HTU21D;63505;45.226;37.908;2023-11-19T00:20:25;8.21;82.72
74940;HTU21D;63505;45.226;37.908;2023-11-19T00:22:51;8.22;82.73
74940;HTU21D;63505;45.226;37.908;2023-11-19T00:25:17;8.24;82.71
74940;HTU21D;63505;45.226;37.908;2023-11-19T00:27:43;8.24;82.72
74940;HTU21D;63505;45.226;37.908;2023-11-19T00:30:12;8.27;82.71
74940;HTU21D;63505;45.226;37.908;2023-11-19T00:32:40;8.28;82.68
74940;HTU21D;63505;45.226;37.908;2023-11-19T00:35:06;8.29;82.66
74940;HTU21D;63505;45.226;37.908;2023-11-19T00:37:42;8.29;82.66
74940;HTU21D;63505;45.226;37.908;2023-11-19T00:40:15;8.29;82.66
74940;HTU21D;63505;45.226;37.908;2023-11-19T00:42:43;8.30;82.66
74940;HTU21D;63505;45.226;37.908;2023-11-19T00:45:09;8.29;82.66
74940;HTU21D;63505;45.226;37.908;2023-11-19T00:47:38;8.31;82.67
74940;HTU21D;63505;45.226;37.908;2023-11-19T00:50:04;8.31;82.65
74940;HTU21D;63505;45.226;37.908;2023-11-19T00:52:31;8.33;82.65
74940;HTU21D;63505;45.226;37.908;2023-11-19T00:54:57;8.33;82.65
74940;HTU21D;63505;45.226;37.908;2023-11-19T00:57:23;8.34;82.65
74940;HTU21D;63505;45.226;37.908;2023-11-19T00:59:49;8.37;82.62
74940;HTU21D;63505;45.226;37.908;2023-11-19T01:02:15;8.39;82.58
74940;HTU21D;63505;45.226;37.908;2023-11-19T01:04:41;8.39;82.52
74940;HTU21D;63505;45.226;37.908;2023-11-19T01:07:08;8.42;82.49
74940;HTU21D;63505;45.226;37.908;2023-11-19T01:09:38;8.39;82.49
74940;HTU21D;63505;45.226;37.908;2023-11-19T01:12:05;8.37;82.53
74940;HTU21D;63505;45.226;37.908;2023-11-19T01:14:31;8.37;82.59
74940;HTU21D;63505;45.226;37.908;2023-11-19T01:16:57;8.41;82.61
74940;HTU21D;63505;45.226;37.908;2023-11-19T01:19:23;8.42;82.55
74940;HTU21D;63505;45.226;37.908;2023-11-19T01:21:52;8.43;82.54
74940;HTU21D;63505;45.226;37.908;2023-11-19T01:24:19;8.44;82.55
74940;HTU21D;63505;45.226;37.908;2023-11-19T01:26:46;8.48;82.49
74940;HTU21D;63505;45.226;37.908;2023-11-19T01:29:15;8.48;82.45
74940;HTU21D;63505;45.226;37.908;2023-11-19T01:31:42;8.49;82.42
74940;HTU21D;63505;45.226;37.908;2023-11-19T01:34:08;8.48;82.41
74940;HTU21D;63505;45.226;37.908;2023-11-19T01:36:35;8.49;82.41
74940;HTU21D;63505;45.226;37.908;2023-11-19T01:39:01;8.48;82.45
74940;HTU21D;63505;45.226;37.908;2023-11-19T01:41:27;8.44;82.49
74940;HTU21D;63505;45.226;37.908;2023-11-19T01:43:53;8.44;82.52
74940;HTU21D;63505;45.226;37.908;2023-11-19T01:46:20;8.41;82.55
74940;HTU21D;63505;45.226;37.908;2023-11-19T01:48:46;8.38;82.62
74940;HTU21D;63505;45.226;37.908;2023-11-19T01:51:13;8.35;82.67
74940;HTU21D;63505;45.226;37.908;2023-11-19T01:53:43;8.31;82.75
74940;HTU21D;63505;45.226;37.908;2023-11-19T01:56:09;8.28;82.84
74940;HTU21D;63505;45.226;37.908;2023-11-19T01:58:39;8.26;82.94
74940;HTU21D;63505;45.226;37.908;2023-11-19T02:01:06;8.24;83.05
74940;HTU21D;63505;45.226;37.908;2023-11-19T02:03:33;8.22;83.12
74940;HTU21D;63505;45.226;37.908;2023-11-19T02:06:01;8.21;83.19
74940;HTU21D;63505;45.226;37.908;2023-11-19T02:08:27;8.21;83.23
74940;HTU21D;63505;45.226;37.908;2023-11-19T02:10:53;8.20;83.29
74940;HTU21D;63505;45.226;37.908;2023-11-19T02:13:22;8.21;83.33
74940;HTU21D;63505;45.226;37.908;2023-11-19T02:15:48;8.21;83.39
74940;HTU21D;63505;45.226;37.908;2023-11-19T02:18:26;8.22;83.44
74940;HTU21D;63505;45.226;37.908;2023-11-19T02:20:59;8.24;83.49
74940;HTU21D;63505;45.226;37.908;2023-11-19T02:23:28;8.24;83.53
74940;HTU21D;63505;45.226;37.908;2023-11-19T02:28:36;8.26;83.57
74940;HTU21D;63505;45.226;37.908;2023-11-19T02:31:02;8.24;83.60
74940;HTU21D;63505;45.226;37.908;2023-11-19T02:33:36;8.23;83.66
74940;HTU21D;63505;45.226;37.908;2023-11-19T02:36:06;8.23;83.69
74940;HTU21D;63505;45.226;37.908;2023-11-19T02:38:33;8.22;83.69
74940;HTU21D;63505;45.226;37.908;2023-11-19T02:41:04;8.20;83.74
74940;HTU21D;63505;45.226;37.908;2023-11-19T02:43:34;8.18;83.78
74940;HTU21D;63505;45.226;37.908;2023-11-19T02:46:01;8.17;83.83
74940;HTU21D;63505;45.226;37.908;2023-11-19T02:48:28;8.17;83.87
74940;HTU21D;63505;45.226;37.908;2023-11-19T02:50:54;8.16;83.90
74940;HTU21D;63505;45.226;37.908;2023-11-19T02:53:20;8.14;83.94
74940;HTU21D;63505;45.226;37.908;2023-11-19T02:55:47;8.14;83.99
74940;HTU21D;63505;45.226;37.908;2023-11-19T02:58:16;8.13;84.03
74940;HTU21D;63505;45.226;37.908;2023-11-19T03:00:54;8.12;84.07
74940;HTU21D;63505;45.226;37.908;2023-11-19T03:03:24;8.08;84.11
74940;HTU21D;63505;45.226;37.908;2023-11-19T03:05:54;8.06;84.15
74940;HTU21D;63505;45.226;37.908;2023-11-19T03:08:20;8.04;84.19
74940;HTU21D;63505;45.226;37.908;2023-11-19T03:10:48;8.02;84.25
74940;HTU21D;63505;45.226;37.908;2023-11-19T03:13:15;8.01;84.29
74940;HTU21D;63505;45.226;37.908;2023-11-19T03:15:41;7.99;84.33
74940;HTU21D;63505;45.226;37.908;2023-11-19T03:18:07;7.98;84.38
74940;HTU21D;63505;45.226;37.908;2023-11-19T03:20:34;7.97;84.44
74940;HTU21D;63505;45.226;37.908;2023-11-19T03:23:00;7.96;84.48
74940;HTU21D;63505;45.226;37.908;2023-11-19T03:25:27;7.94;84.50
74940;HTU21D;63505;45.226;37.908;2023-11-19T03:27:59;7.92;84.56
74940;HTU21D;63505;45.226;37.908;2023-11-19T03:30:26;7.91;84.61
74940;HTU21D;63505;45.226;37.908;2023-11-19T03:32:55;7.89;84.65
74940;HTU21D;63505;45.226;37.908;2023-11-19T03:35:21;7.90;84.70
74940;HTU21D;63505;45.226;37.908;2023-11-19T03:37:47;7.89;84.77
74940;HTU21D;63505;45.226;37.908;2023-11-19T03:40:13;7.89;84.85
74940;HTU21D;63505;45.226;37.908;2023-11-19T03:42:40;7.91;84.93
74940;HTU21D;63505;45.226;37.908;2023-11-19T03:45:07;7.92;85.03
74940;HTU21D;63505;45.226;37.908;2023-11-19T03:47:36;7.93;85.09
74940;HTU21D;63505;45.226;37.908;2023-11-19T03:50:03;7.93;85.13
74940;HTU21D;63505;45.226;37.908;2023-11-19T03:52:30;7.94;85.19
74940;HTU21D;63505;45.226;37.908;2023-11-19T03:54:56;7.93;85.22
74940;HTU21D;63505;45.226;37.908;2023-11-19T03:57:24;7.97;85.29
74940;HTU21D;63505;45.226;37.908;2023-11-19T03:59:50;7.98;85.28
74940;HTU21D;63505;45.226;37.908;2023-11-19T04:02:17;7.97;85.30
74940;HTU21D;63505;45.226;37.908;2023-11-19T04:04:43;7.98;85.33
74940;HTU21D;63505;45.226;37.908;2023-11-19T04:07:09;7.99;85.37
74940;HTU21D;63505;45.226;37.908;2023-11-19T04:09:35;8.02;85.44
74940;HTU21D;63505;45.226;37.908;2023-11-19T04:12:03;8.06;85.48
74940;HTU21D;63505;45.226;37.908;2023-11-19T04:14:29;8.07;85.50
74940;HTU21D;63505;45.226;37.908;2023-11-19T04:16:55;8.08;85.53
74940;HTU21D;63505;45.226;37.908;2023-11-19T04:19:21;8.12;85.55
74940;HTU21D;63505;45.226;37.908;2023-11-19T04:21:47;8.12;85.61
74940;HTU21D;63505;45.226;37.908;2023-11-19T04:24:14;8.14;85.66
74940;HTU21D;63505;45.226;37.908;2023-11-19T04:26:44;8.13;85.69
74940;HTU21D;63505;45.226;37.908;2023-11-19T04:29:12;8.13;85.76
74940;HTU21D;63505;45.226;37.908;2023-11-19T04:31:38;8.13;85.82
74940;HTU21D;63505;45.226;37.908;2023-11-19T04:34:05;8.17;85.88
74940;HTU21D;63505;45.226;37.908;2023-11-19T04:36:34;8.16;85.90
74940;HTU21D;63505;45.226;37.908;2023-11-19T04:39:01;8.16;85.90
74940;HTU21D;63505;45.226;37.908;2023-11-19T04:41:27;8.17;85.96
74940;HTU21D;63505;45.226;37.908;2023-11-19T04:43:54;8.16;86.03
74940;HTU21D;63505;45.226;37.908;2023-11-19T04:46:20;8.16;86.08
74940;HTU21D;63505;45.226;37.908;2023-11-19T04:48:46;8.15;86.14
74940;HTU21D;63505;45.226;37.908;2023-11-19T04:51:12;8.15;86.20
74940;HTU21D;63505;45.226;37.908;2023-11-19T04:53:38;8.16;86.23
74940;HTU21D;63505;45.226;37.908;2023-11-19T04:56:11;8.16;86.29
74940;HTU21D;63505;45.226;37.908;2023-11-19T04:58:37;8.18;86.34
74940;HTU21D;63505;45.226;37.908;2023-11-19T05:01:04;8.18;86.32
74940;HTU21D;63505;45.226;37.908;2023-11-19T05:03:33;8.19;86.37
74940;HTU21D;63505;45.226;37.908;2023-11-19T05:05:58;8.20;86.39
74940;HTU21D;63505;45.226;37.908;2023-11-19T05:08:25;8.20;86.42
74940;HTU21D;63505;45.226;37.908;2023-11-19T05:10:51;8.20;86.45
74940;HTU21D;63505;45.226;37.908;2023-11-19T05:13:17;8.19;86.46
74940;HTU21D;63505;45.226;37.908;2023-11-19T05:15:43;8.18;86.49
74940;HTU21D;63505;45.226;37.908;2023-11-19T05:18:09;8.15;86.53
74940;HTU21D;63505;45.226;37.908;2023-11-19T05:20:34;8.12;86.56
74940;HTU21D;63505;45.226;37.908;2023-11-19T05:23:00;8.07;86.59
74940;HTU21D;63505;45.226;37.908;2023-11-19T05:25:27;8.03;86.63
74940;HTU21D;63505;45.226;37.908;2023-11-19T05:27:53;7.98;86.70
74940;HTU21D;63505;45.226;37.908;2023-11-19T05:30:19;7.92;86.77
74940;HTU21D;63505;45.226;37.908;2023-11-19T05:32:45;7.88;86.87
74940;HTU21D;63505;45.226;37.908;2023-11-19T05:35:11;7.86;86.96
74940;HTU21D;63505;45.226;37.908;2023-11-19T05:37:37;7.83;86.99
74940;HTU21D;63505;45.226;37.908;2023-11-19T05:40:05;7.81;86.99
74940;HTU21D;63505;45.226;37.908;2023-11-19T05:42:37;7.78;87.01
74940;HTU21D;63505;45.226;37.908;2023-11-19T05:45:03;7.75;87.02
74940;HTU21D;63505;45.226;37.908;2023-11-19T05:47:29;7.74;87.03
74940;HTU21D;63505;45.226;37.908;2023-11-19T05:49:55;7.73;87.03
74940;HTU21D;63505;45.226;37.908;2023-11-19T05:52:21;7.70;87.04
74940;HTU21D;63505;45.226;37.908;2023-11-19T05:54:48;7.68;87.04
74940;HTU21D;63505;45.226;37.908;2023-11-19T05:57:17;7.65;87.06
74940;HTU21D;63505;45.226;37.908;2023-11-19T05:59:49;7.64;87.05
74940;HTU21D;63505;45.226;37.908;2023-11-19T06:02:15;7.63;87.04
74940;HTU21D;63505;45.226;37.908;2023-11-19T06:04:42;7.62;87.04
74940;HTU21D;63505;45.226;37.908;2023-11-19T06:07:10;7.62;87.06
74940;HTU21D;63505;45.226;37.908;2023-11-19T06:09:35;7.63;87.00
74940;HTU21D;63505;45.226;37.908;2023-11-19T06:12:02;7.63;86.96
74940;HTU21D;63505;45.226;37.908;2023-11-19T06:14:28;7.63;86.93
74940;HTU21D;63505;45.226;37.908;2023-11-19T06:16:54;7.60;86.89
74940;HTU21D;63505;45.226;37.908;2023-11-19T06:19:20;7.59;86.87
74940;HTU21D;63505;45.226;37.908;2023-11-19T06:21:46;7.57;86.89
74940;HTU21D;63505;45.226;37.908;2023-11-19T06:24:12;7.57;86.92
74940;HTU21D;63505;45.226;37.908;2023-11-19T06:26:38;7.55;86.97
74940;HTU21D;63505;45.226;37.908;2023-11-19T06:29:04;7.57;86.99
74940;HTU21D;63505;45.226;37.908;2023-11-19T06:31:30;7.58;87.03
74940;HTU21D;63505;45.226;37.908;2023-11-19T06:33:57;7.60;87.06
74940;HTU21D;63505;45.226;37.908;2023-11-19T06:36:22;7.63;87.06
74940;HTU21D;63505;45.226;37.908;2023-11-19T06:38:48;7.64;87.06
74940;HTU21D;63505;45.226;37.908;2023-11-19T06:41:14;7.65;87.09
74940;HTU21D;63505;45.226;37.908;2023-11-19T06:43:41;7.65;87.11
74940;HTU21D;63505;45.226;37.908;2023-11-19T06:46:15;7.68;87.14
74940;HTU21D;63505;45.226;37.908;2023-11-19T06:48:40;7.69;87.15
74940;HTU21D;63505;45.226;37.908;2023-11-19T06:51:10;7.69;87.12
74940;HTU21D;63505;45.226;37.908;2023-11-19T06:53:36;7.68;87.16
74940;HTU21D;63505;45.226;37.908;2023-11-19T06:56:02;7.69;87.23
74940;HTU21D;63505;45.226;37.908;2023-11-19T06:58:35;7.69;87.25
74940;HTU21D;63505;45.226;37.908;2023-11-19T07:01:01;7.69;87.27
74940;HTU21D;63505;45.226;37.908;2023-11-19T07:03:27;7.68;87.28
74940;HTU21D;63505;45.226;37.908;2023-11-19T07:05:53;7.69;87.32
74940;HTU21D;63505;45.226;37.908;2023-11-19T07:08:21;7.69;87.34
74940;HTU21D;63505;45.226;37.908;2023-11-19T07:10:47;7.70;87.34
74940;HTU21D;63505;45.226;37.908;2023-11-19T07:13:13;7.72;87.33
74940;HTU21D;63505;45.226;37.908;2023-11-19T07:15:39;7.73;87.35
74940;HTU21D;63505;45.226;37.908;2023-11-19T07:18:05;7.73;87.36
74940;HTU21D;63505;45.226;37.908;2023-11-19T07:20:31;7.73;87.41
74940;HTU21D;63505;45.226;37.908;2023-11-19T07:22:58;7.73;87.45
74940;HTU21D;63505;45.226;37.908;2023-11-19T07:25:24;7.75;87.48
74940;HTU21D;63505;45.226;37.908;2023-11-19T07:27:51;7.77;87.48
74940;HTU21D;63505;45.226;37.908;2023-11-19T07:30:17;7.78;87.48
74940;HTU21D;63505;45.226;37.908;2023-11-19T07:32:43;7.83;87.48
74940;HTU21D;63505;45.226;37.908;2023-11-19T07:35:09;7.84;87.40
74940;HTU21D;63505;45.226;37.908;2023-11-19T07:37:35;7.84;87.35
74940;HTU21D;63505;45.226;37.908;2023-11-19T07:40:01;7.82;87.35
74940;HTU21D;63505;45.226;37.908;2023-11-19T07:42:27;7.79;87.38
74940;HTU21D;63505;45.226;37.908;2023-11-19T07:44:53;7.78;87.43
74940;HTU21D;63505;45.226;37.908;2023-11-19T07:47:21;7.81;87.48
74940;HTU21D;63505;45.226;37.908;2023-11-19T07:49:50;7.85;87.47
74940;HTU21D;63505;45.226;37.908;2023-11-19T07:52:16;7.84;87.37
74940;HTU21D;63505;45.226;37.908;2023-11-19T07:54:42;7.77;87.38
74940;HTU21D;63505;45.226;37.908;2023-11-19T07:57:08;7.71;87.48
74940;HTU21D;63505;45.226;37.908;2023-11-19T07:59:34;7.67;87.57
74940;HTU21D;63505;45.226;37.908;2023-11-19T08:02:00;7.64;87.67
74940;HTU21D;63505;45.226;37.908;2023-11-19T08:04:26;7.63;87.73
74940;HTU21D;63505;45.226;37.908;2023-11-19T08:06:52;7.64;87.74
74940;HTU21D;63505;45.226;37.908;2023-11-19T08:09:18;7.67;87.77
74940;HTU21D;63505;45.226;37.908;2023-11-19T08:11:44;7.65;87.73
74940;HTU21D;63505;45.226;37.908;2023-11-19T08:14:11;7.67;87.71
74940;HTU21D;63505;45.226;37.908;2023-11-19T08:16:39;7.64;87.75
74940;HTU21D;63505;45.226;37.908;2023-11-19T08:19:05;7.65;87.78
74940;HTU21D;63505;45.226;37.908;2023-11-19T08:21:31;7.65;87.80
74940;HTU21D;63505;45.226;37.908;2023-11-19T08:23:57;7.65;87.82
74940;HTU21D;63505;45.226;37.908;2023-11-19T08:26:23;7.65;87.82
74940;HTU21D;63505;45.226;37.908;2023-11-19T08:28:49;7.63;87.86
74940;HTU21D;63505;45.226;37.908;2023-11-19T08:31:17;7.63;87.92
74940;HTU21D;63505;45.226;37.908;2023-11-19T08:33:43;7.62;87.89
74940;HTU21D;63505;45.226;37.908;2023-11-19T08:36:15;7.62;87.93
74940;HTU21D;63505;45.226;37.908;2023-11-19T08:38:42;7.60;87.97
74940;HTU21D;63505;45.226;37.908;2023-11-19T08:41:08;7.58;88.01
74940;HTU21D;63505;45.226;37.908;2023-11-19T08:43:34;7.59;88.09
74940;HTU21D;63505;45.226;37.908;2023-11-19T08:45:59;7.60;88.11
74940;HTU21D;63505;45.226;37.908;2023-11-19T08:48:25;7.62;88.18
74940;HTU21D;63505;45.226;37.908;2023-11-19T08:50:52;7.64;88.18
74940;HTU21D;63505;45.226;37.908;2023-11-19T08:53:18;7.67;88.22
74940;HTU21D;63505;45.226;37.908;2023-11-19T08:55:44;7.68;88.22
74940;HTU21D;63505;45.226;37.908;2023-11-19T08:58:10;7.68;88.20
74940;HTU21D;63505;45.226;37.908;2023-11-19T09:00:36;7.67;88.22
74940;HTU21D;63505;45.226;37.908;2023-11-19T09:03:02;7.63;88.25
74940;HTU21D;63505;45.226;37.908;2023-11-19T09:05:28;7.61;88.30
74940;HTU21D;63505;45.226;37.908;2023-11-19T09:07:54;7.60;88.36
74940;HTU21D;63505;45.226;37.908;2023-11-19T09:10:20;7.59;88.42
74940;HTU21D;63505;45.226;37.908;2023-11-19T09:12:46;7.60;88.44
74940;HTU21D;63505;45.226;37.908;2023-11-19T09:15:12;7.59;88.45
74940;HTU21D;63505;45.226;37.908;2023-11-19T09:17:38;7.57;88.49
74940;HTU21D;63505;45.226;37.908;2023-11-19T09:20:05;7.57;88.50
74940;HTU21D;63505;45.226;37.908;2023-11-19T09:22:31;7.55;88.51
74940;HTU21D;63505;45.226;37.908;2023-11-19T09:24:57;7.54;88.52
74940;HTU21D;63505;45.226;37.908;2023-11-19T09:27:42;7.53;88.57
74940;HTU21D;63505;45.226;37.908;2023-11-19T09:30:08;7.49;88.61
74940;HTU21D;63505;45.226;37.908;2023-11-19T09:32:34;7.52;88.65
74940;HTU21D;63505;45.226;37.908;2023-11-19T09:35:01;7.48;88.67
74940;HTU21D;63505;45.226;37.908;2023-11-19T09:37:29;7.48;88.73
74940;HTU21D;63505;45.226;37.908;2023-11-19T09:39:55;7.49;88.80
74940;HTU21D;63505;45.226;37.908;2023-11-19T09:42:21;7.52;88.84
74940;HTU21D;63505;45.226;37.908;2023-11-19T09:44:47;7.53;88.91
74940;HTU21D;63505;45.226;37.908;2023-11-19T09:47:14;7.53;88.95
74940;HTU21D;63505;45.226;37.908;2023-11-19T09:49:43;7.54;88.95
74940;HTU21D;63505;45.226;37.908;2023-11-19T09:52:09;7.56;88.96
74940;HTU21D;63505;45.226;37.908;2023-11-19T09:54:35;7.57;88.96
74940;HTU21D;63505;45.226;37.908;2023-11-19T09:57:02;7.59;88.93
74940;HTU21D;63505;45.226;37.908;2023-11-19T09:59:31;7.59;88.89
74940;HTU21D;63505;45.226;37.908;2023-11-19T10:01:59;7.60;88.86
74940;HTU21D;63505;45.226;37.908;2023-11-19T10:04:29;7.60;88.86
74940;HTU21D;63505;45.226;37.908;2023-11-19T10:06:55;7.59;88.87
74940;HTU21D;63505;45.226;37.908;2023-11-19T10:09:21;7.57;88.89
74940;HTU21D;63505;45.226;37.908;2023-11-19T10:11:47;7.58;88.92
74940;HTU21D;63505;45.226;37.908;2023-11-19T10:14:14;7.56;88.94
74940;HTU21D;63505;45.226;37.908;2023-11-19T10:16:40;7.54;88.99
74940;HTU21D;63505;45.226;37.908;2023-11-19T10:19:06;7.53;89.03
74940;HTU21D;63505;45.226;37.908;2023-11-19T10:21:33;7.54;89.07
74940;HTU21D;63505;45.226;37.908;2023-11-19T10:23:59;7.54;89.08
74940;HTU21D;63505;45.226;37.908;2023-11-19T10:26:26;7.54;89.12
74940;HTU21D;63505;45.226;37.908;2023-11-19T10:28:52;7.54;89.15
74940;HTU21D;63505;45.226;37.908;2023-11-19T10:31:20;7.55;89.16
74940;HTU21D;63505;45.226;37.908;2023-11-19T10:33:53;7.55;89.21
74940;HTU21D;63505;45.226;37.908;2023-11-19T10:36:19;7.57;89.24
74940;HTU21D;63505;45.226;37.908;2023-11-19T10:38:56;7.59;89.26
74940;HTU21D;63505;45.226;37.908;2023-11-19T10:41:29;7.61;89.27
74940;HTU21D;63505;45.226;37.908;2023-11-19T10:43:56;7.64;89.29
74940;HTU21D;63505;45.226;37.908;2023-11-19T10:46:22;7.68;89.28
74940;HTU21D;63505;45.226;37.908;2023-11-19T10:48:49;7.69;89.34
74940;HTU21D;63505;45.226;37.908;2023-11-19T10:51:19;7.72;89.41
74940;HTU21D;63505;45.226;37.908;2023-11-19T10:53:50;7.74;89.47
74940;HTU21D;63505;45.226;37.908;2023-11-19T10:56:18;7.77;89.49
74940;HTU21D;63505;45.226;37.908;2023-11-19T10:58:49;7.79;89.55
74940;HTU21D;63505;45.226;37.908;2023-11-19T11:01:19;7.82;89.63
74940;HTU21D;63505;45.226;37.908;2023-11-19T11:03:51;7.86;89.70
74940;HTU21D;63505;45.226;37.908;2023-11-19T11:06:18;7.88;89.75
74940;HTU21D;63505;45.226;37.908;2023-11-19T11:08:46;7.90;89.78
74940;HTU21D;63505;45.226;37.908;2023-11-19T11:11:15;7.93;89.86
74940;HTU21D;63505;45.226;37.908;2023-11-19T11:13:47;7.97;89.91
74940;HTU21D;63505;45.226;37.908;2023-11-19T11:16:15;7.99;89.95
74940;HTU21D;63505;45.226;37.908;2023-11-19T11:18:47;8.03;90.01
74940;HTU21D;63505;45.226;37.908;2023-11-19T11:21:21;8.08;90.01
74940;HTU21D;63505;45.226;37.908;2023-11-19T11:29:20;8.16;90.17
74940;HTU21D;63505;45.226;37.908;2023-11-19T11:37:35;8.27;90.14
74940;HTU21D;63505;45.226;37.908;2023-11-19T11:40:02;8.29;90.13
74940;HTU21D;63505;45.226;37.908;2023-11-19T11:42:38;8.31;90.15
74940;HTU21D;63505;45.226;37.908;2023-11-19T11:50:15;8.42;90.17
74940;HTU21D;63505;45.226;37.908;2023-11-19T11:55:33;8.61;90.28
74940;HTU21D;63505;45.226;37.908;2023-11-19T11:58:00;8.73;90.22
74940;HTU21D;63505;45.226;37.908;2023-11-19T12:00:27;8.85;90.17
74940;HTU21D;63505;45.226;37.908;2023-11-19T12:02:56;8.94;90.11
74940;HTU21D;63505;45.226;37.908;2023-11-19T12:05:23;9.02;90.05
74940;HTU21D;63505;45.226;37.908;2023-11-19T12:07:56;9.04;89.97
74940;HTU21D;63505;45.226;37.908;2023-11-19T12:10:25;9.03;89.96
74940;HTU21D;63505;45.226;37.908;2023-11-19T12:12:58;9.02;90.02
74940;HTU21D;63505;45.226;37.908;2023-11-19T12:15:24;9.00;90.08
74940;HTU21D;63505;45.226;37.908;2023-11-19T12:17:50;8.98;90.17
74940;HTU21D;63505;45.226;37.908;2023-11-19T12:20:18;8.97;90.24
74940;HTU21D;63505;45.226;37.908;2023-11-19T12:22:46;8.96;90.30
74940;HTU21D;63505;45.226;37.908;2023-11-19T12:25:12;8.96;90.38
74940;HTU21D;63505;45.226;37.908;2023-11-19T12:27:43;8.96;90.44
74940;HTU21D;63505;45.226;37.908;2023-11-19T12:30:09;8.97;90.48
74940;HTU21D;63505;45.226;37.908;2023-11-19T12:32:42;9.02;90.51
74940;HTU21D;63505;45.226;37.908;2023-11-19T12:35:09;9.03;90.53
74940;HTU21D;63505;45.226;37.908;2023-11-19T12:37:44;9.07;90.53
74940;HTU21D;63505;45.226;37.908;2023-11-19T12:42:41;9.15;90.52
74940;HTU21D;63505;45.226;37.908;2023-11-19T12:45:07;9.16;90.50
74940;HTU21D;63505;45.226;37.908;2023-11-19T12:47:37;9.16;90.47
74940;HTU21D;63505;45.226;37.908;2023-11-19T12:50:03;9.19;90.48
74940;HTU21D;63505;45.226;37.908;2023-11-19T12:52:30;9.19;90.47
74940;HTU21D;63505;45.226;37.908;2023-11-19T12:54:56;9.20;90.47
74940;HTU21D;63505;45.226;37.908;2023-11-19T12:57:40;9.21;90.47
74940;HTU21D;63505;45.226;37.908;2023-11-19T13:00:07;9.21;90.47
74940;HTU21D;63505;45.226;37.908;2023-11-19T13:02:47;9.23;90.47
74940;HTU21D;63505;45.226;37.908;2023-11-19T13:05:32;9.25;90.47
74940;HTU21D;63505;45.226;37.908;2023-11-19T13:08:05;9.25;90.47
74940;HTU21D;63505;45.226;37.908;2023-11-19T13:10:33;9.24;90.47
74940;HTU21D;63505;45.226;37.908;2023-11-19T13:13:06;9.25;90.47
74940;HTU21D;63505;45.226;37.908;2023-11-19T13:15:36;9.25;90.47
74940;HTU21D;63505;45.226;37.908;2023-11-19T13:18:02;9.26;90.48
74940;HTU21D;63505;45.226;37.908;2023-11-19T13:20:29;9.27;90.47
74940;HTU21D;63505;45.226;37.908;2023-11-19T13:22:55;9.27;90.47
74940;HTU21D;63505;45.226;37.908;2023-11-19T13:25:22;9.26;90.48
74940;HTU21D;63505;45.226;37.908;2023-11-19T13:27:48;9.26;90.47
74940;HTU21D;63505;45.226;37.908;2023-11-19T13:30:14;9.27;90.50
74940;HTU21D;63505;45.226;37.908;2023-11-19T13:32:41;9.26;90.50
74940;HTU21D;63505;45.226;37.908;2023-11-19T13:35:07;9.27;90.51
74940;HTU21D;63505;45.226;37.908;2023-11-19T13:37:34;9.30;90.51
74940;HTU21D;63505;45.226;37.908;2023-11-19T13:40:01;9.27;90.51
74940;HTU21D;63505;45.226;37.908;2023-11-19T13:42:26;9.29;90.55
74940;HTU21D;63505;45.226;37.908;2023-11-19T13:44:53;9.29;90.53
74940;HTU21D;63505;45.226;37.908;2023-11-19T13:47:18;9.29;90.53
74940;HTU21D;63505;45.226;37.908;2023-11-19T13:49:45;9.30;90.51
74940;HTU21D;63505;45.226;37.908;2023-11-19T13:52:10;9.29;90.51
74940;HTU21D;63505;45.226;37.908;2023-11-19T13:54:37;9.26;90.53
74940;HTU21D;63505;45.226;37.908;2023-11-19T13:57:03;9.27;90.52
74940;HTU21D;63505;45.226;37.908;2023-11-19T13:59:32;9.25;90.55
74940;HTU21D;63505;45.226;37.908;2023-11-19T14:01:59;9.26;90.54
74940;HTU21D;63505;45.226;37.908;2023-11-19T14:04:25;9.25;90.54
74940;HTU21D;63505;45.226;37.908;2023-11-19T14:06:51;9.25;90.53
74940;HTU21D;63505;45.226;37.908;2023-11-19T14:09:18;9.26;90.52
74940;HTU21D;63505;45.226;37.908;2023-11-19T14:11:44;9.27;90.52
74940;HTU21D;63505;45.226;37.908;2023-11-19T14:14:10;9.26;90.47
74940;HTU21D;63505;45.226;37.908;2023-11-19T14:16:36;9.26;90.45
74940;HTU21D;63505;45.226;37.908;2023-11-19T14:19:03;9.25;90.44
74940;HTU21D;63505;45.226;37.908;2023-11-19T14:21:29;9.22;90.43
74940;HTU21D;63505;45.226;37.908;2023-11-19T14:23:55;9.17;90.46
74940;HTU21D;63505;45.226;37.908;2023-11-19T14:26:21;9.11;90.52
74940;HTU21D;63505;45.226;37.908;2023-11-19T14:28:47;9.09;90.60
74940;HTU21D;63505;45.226;37.908;2023-11-19T14:31:13;9.07;90.66
74940;HTU21D;63505;45.226;37.908;2023-11-19T14:33:39;9.04;90.73
74940;HTU21D;63505;45.226;37.908;2023-11-19T14:36:05;9.02;90.77
74940;HTU21D;63505;45.226;37.908;2023-11-19T14:38:33;9.02;90.80
74940;HTU21D;63505;45.226;37.908;2023-11-19T14:40:59;9.03;90.86
74940;HTU21D;63505;45.226;37.908;2023-11-19T14:43:25;9.03;90.89
74940;HTU21D;63505;45.226;37.908;2023-11-19T14:45:51;9.03;90.95
74940;HTU21D;63505;45.226;37.908;2023-11-19T14:48:18;9.05;90.98
74940;HTU21D;63505;45.226;37.908;2023-11-19T14:50:44;9.06;90.98
74940;HTU21D;63505;45.226;37.908;2023-11-19T14:53:12;9.06;90.98
74940;HTU21D;63505;45.226;37.908;2023-11-19T14:55:38;9.02;90.99
74940;HTU21D;63505;45.226;37.908;2023-11-19T14:58:04;9.00;91.11
74940;HTU21D;63505;45.226;37.908;2023-11-19T15:00:31;8.97;91.16
74940;HTU21D;63505;45.226;37.908;2023-11-19T15:02:57;8.96;91.24
74940;HTU21D;63505;45.226;37.908;2023-11-19T15:05:23;8.96;91.31
74940;HTU21D;63505;45.226;37.908;2023-11-19T15:07:49;8.96;91.40
74940;HTU21D;63505;45.226;37.908;2023-11-19T15:10:15;8.96;91.46
74940;HTU21D;63505;45.226;37.908;2023-11-19T15:12:41;8.97;91.56
74940;HTU21D;63505;45.226;37.908;2023-11-19T15:15:08;9.00;91.56
74940;HTU21D;63505;45.226;37.908;2023-11-19T15:17:43;9.01;91.53
74940;HTU21D;63505;45.226;37.908;2023-11-19T15:20:10;9.00;91.56
74940;HTU21D;63505;45.226;37.908;2023-11-19T15:22:39;9.01;91.55
74940;HTU21D;63505;45.226;37.908;2023-11-19T15:25:05;9.00;91.58
74940;HTU21D;63505;45.226;37.908;2023-11-19T15:27:36;9.00;91.56
74940;HTU21D;63505;45.226;37.908;2023-11-19T15:30:02;9.01;91.55
74940;HTU21D;63505;45.226;37.908;2023-11-19T15:32:28;9.03;91.56
74940;HTU21D;63505;45.226;37.908;2023-11-19T15:34:57;9.04;91.52
74940;HTU21D;63505;45.226;37.908;2023-11-19T15:37:24;9.07;91.50
74940;HTU21D;63505;45.226;37.908;2023-11-19T15:39:50;9.11;91.47